createdAt,value
2022-12-25T00:00:51.062Z,101155.75
2022-12-25T00:05:54.691Z,101272.25
2022-12-25T00:11:01.709Z,101228.94
2022-12-25T00:16:08.636Z,101260.75
2022-12-25T00:21:13.683Z,101081.09
2022-12-25T00:26:18.314Z,101093.78
2022-12-25T00:31:23.166Z,101268.34
2022-12-25T00:36:39.536Z,101236.13
2022-12-25T00:42:02.014Z,101253.19
2022-12-25T00:47:06.075Z,101238.00
2022-12-25T00:52:11.499Z,101237.72
2022-12-25T00:57:14.215Z,101184.19
2022-12-25T01:02:29.106Z,101240.16
2022-12-25T01:07:32.040Z,101236.50
2022-12-25T01:12:49.062Z,101230.91
2022-12-25T01:18:00.675Z,101237.53
2022-12-25T01:23:06.859Z,101239.06
2022-12-25T01:28:10.028Z,101233.09
2022-12-25T01:33:14.250Z,101197.38
2022-12-25T01:38:17.045Z,101106.16
2022-12-25T01:43:24.382Z,101137.31
2022-12-25T01:48:30.431Z,101215.16
2022-12-25T01:53:33.818Z,101131.63
2022-12-25T01:58:37.057Z,101235.97
2022-12-25T02:03:43.438Z,101240.50
2022-12-25T02:08:46.408Z,101242.66
2022-12-25T02:13:48.959Z,101251.25
2022-12-25T02:18:57.600Z,101247.75
2022-12-25T02:24:22.964Z,101257.38
2022-12-25T02:29:34.141Z,101251.06
2022-12-25T02:34:45.092Z,101256.28
2022-12-25T02:39:59.817Z,101260.88
2022-12-25T02:45:22.109Z,101228.25
2022-12-25T02:50:44.162Z,101244.25
2022-12-25T02:56:06.995Z,101255.75
2022-12-25T03:01:33.451Z,101257.56
2022-12-25T03:06:44.200Z,101254.41
2022-12-25T03:11:49.189Z,101247.56
2022-12-25T03:16:56.751Z,101211.44
2022-12-25T03:22:17.028Z,101226.84
2022-12-25T03:27:19.882Z,101223.53
2022-12-25T03:32:36.771Z,101217.16
2022-12-25T03:38:05.714Z,101197.19
2022-12-25T03:43:43.357Z,101197.09
2022-12-25T03:49:11.142Z,101189.91
2022-12-25T03:54:33.951Z,101163.66
2022-12-25T03:59:54.176Z,101159.03
2022-12-25T04:05:15.899Z,101169.03
2022-12-25T04:10:36.523Z,101164.09
2022-12-25T04:15:56.878Z,101181.94
2022-12-25T04:21:18.715Z,101090.28
2022-12-25T04:26:39.271Z,101154.13
2022-12-25T04:31:59.657Z,101156.34
2022-12-25T04:37:03.528Z,101160.59
2022-12-25T04:42:06.152Z,101153.13
2022-12-25T04:47:11.539Z,101144.91
2022-12-25T04:52:15.744Z,101144.25
2022-12-25T04:57:18.410Z,101147.75
2022-12-25T05:02:21.050Z,101148.59
2022-12-25T05:07:25.078Z,101155.00
2022-12-25T05:12:27.675Z,101157.44
2022-12-25T05:17:30.187Z,101152.16
2022-12-25T05:22:34.101Z,101126.19
2022-12-25T05:27:36.622Z,101162.63
2022-12-25T05:32:39.407Z,101156.63
2022-12-25T05:37:43.306Z,101147.84
2022-12-25T05:42:45.925Z,101137.84
2022-12-25T05:47:48.450Z,101135.19
2022-12-25T05:52:52.307Z,101134.84
2022-12-25T05:57:54.838Z,101129.38
2022-12-25T06:02:57.681Z,101119.53
2022-12-25T06:08:01.699Z,101104.53
2022-12-25T06:13:04.801Z,101096.75
2022-12-25T06:18:07.402Z,101080.41
2022-12-25T06:23:11.425Z,101091.75
2022-12-25T06:28:14.027Z,101095.31
2022-12-25T06:33:16.556Z,101081.16
2022-12-25T06:38:20.709Z,101088.47
2022-12-25T06:43:23.836Z,101082.50
2022-12-25T06:48:26.344Z,101076.84
2022-12-25T06:53:37.108Z,101072.41
2022-12-25T06:58:44.016Z,101068.53
2022-12-25T07:03:48.278Z,101063.22
2022-12-25T07:08:52.302Z,101028.47
2022-12-25T07:13:55.006Z,101031.13
2022-12-25T07:18:59.851Z,101014.09
2022-12-25T07:24:03.845Z,101005.69
2022-12-25T07:29:06.933Z,101001.25
2022-12-25T07:34:10.263Z,101016.09
2022-12-25T07:39:16.252Z,101016.91
2022-12-25T07:44:19.225Z,101011.44
2022-12-25T07:49:21.844Z,100999.25
2022-12-25T07:54:25.884Z,100999.91
2022-12-25T07:59:28.403Z,100987.91
2022-12-25T08:04:31.161Z,100997.72
2022-12-25T08:09:36.527Z,101013.22
2022-12-25T08:14:39.124Z,101025.59
2022-12-25T08:19:42.134Z,101015.00
2022-12-25T08:24:46.013Z,101046.75
2022-12-25T08:29:48.737Z,101007.66
2022-12-25T08:35:01.526Z,101011.44
2022-12-25T08:40:06.993Z,101032.19
2022-12-25T08:45:11.017Z,101058.31
2022-12-25T08:50:13.534Z,101041.13
2022-12-25T08:55:17.956Z,101011.19
2022-12-25T09:00:21.105Z,101020.69
2022-12-25T09:05:23.731Z,101029.84
2022-12-25T09:10:27.615Z,101035.25
2022-12-25T09:15:30.295Z,101037.75
2022-12-25T09:20:33.136Z,101029.53
2022-12-25T09:25:37.043Z,101041.38
2022-12-25T09:30:39.644Z,101061.53
2022-12-25T09:35:42.222Z,101050.75
2022-12-25T09:40:46.567Z,101062.97
2022-12-25T09:45:49.259Z,101028.75
2022-12-25T09:50:56.069Z,101051.22
2022-12-25T09:56:07.257Z,101043.09
2022-12-25T10:01:19.843Z,101014.84
2022-12-25T10:06:25.653Z,101004.91
2022-12-25T10:11:42.722Z,101011.81
2022-12-25T10:16:51.247Z,100968.69
2022-12-25T10:21:59.574Z,100972.28
2022-12-25T10:27:13.211Z,100967.81
2022-12-25T10:32:15.828Z,100955.81
2022-12-25T10:37:18.722Z,100971.97
2022-12-25T10:42:41.018Z,100977.09
2022-12-25T10:47:43.944Z,100957.00
2022-12-25T10:53:00.349Z,100956.19
2022-12-25T10:58:04.283Z,100938.53
2022-12-25T11:03:07.112Z,100922.66
2022-12-25T11:08:20.828Z,100893.69
2022-12-25T11:13:27.307Z,100922.50
2022-12-25T11:18:33.833Z,100917.94
2022-12-25T11:23:36.402Z,100906.53
2022-12-25T11:28:43.466Z,100876.44
2022-12-25T11:33:52.760Z,100857.41
2022-12-25T11:45:49.989Z,100814.81
2022-12-25T11:50:56.516Z,100807.28
2022-12-25T11:56:02.660Z,100810.69
2022-12-25T12:01:16.999Z,100796.16
2022-12-25T12:06:28.218Z,100817.97
2022-12-25T12:11:36.108Z,100810.91
2022-12-25T12:16:40.498Z,100809.28
2022-12-25T12:21:49.565Z,100787.91
2022-12-25T12:27:03.378Z,100792.53
2022-12-25T12:32:41.553Z,100797.84
2022-12-25T12:37:47.168Z,100789.50
2022-12-25T12:42:52.208Z,100773.22
2022-12-25T12:47:56.660Z,100765.69
2022-12-25T13:06:41.694Z,100748.91
2022-12-25T13:11:45.229Z,100744.25
2022-12-25T13:16:50.072Z,100734.75
2022-12-25T13:21:56.320Z,100727.41
2022-12-25T13:26:59.878Z,100628.28
2022-12-25T13:32:04.753Z,100731.97
2022-12-25T13:37:11.156Z,100729.88
2022-12-25T13:42:17.845Z,100724.66
2022-12-25T13:47:24.239Z,100724.66
2022-12-25T13:52:34.847Z,100702.84
2022-12-25T13:57:40.754Z,100711.44
2022-12-25T14:02:43.750Z,100709.84
2022-12-25T14:07:51.918Z,100702.00
2022-12-25T14:12:57.365Z,100699.47
2022-12-25T14:24:50.971Z,100687.69
2022-12-25T14:29:56.848Z,100686.88
2022-12-25T14:35:03.610Z,100682.53
2022-12-25T14:40:22.865Z,100686.00
2022-12-25T14:45:31.824Z,100657.00
2022-12-25T14:50:39.290Z,100623.84
2022-12-25T14:55:48.304Z,100666.50
2022-12-25T15:00:56.094Z,100664.72
2022-12-25T15:06:01.159Z,100657.63
2022-12-25T15:11:05.557Z,100647.66
2022-12-25T15:16:15.353Z,100652.13
2022-12-25T15:21:24.187Z,100619.94
2022-12-25T15:26:30.226Z,100627.53
2022-12-25T15:31:34.563Z,100623.63
2022-12-25T15:36:37.189Z,100617.91
2022-12-25T15:41:59.149Z,100620.34
2022-12-25T15:47:02.207Z,100620.22
2022-12-25T15:52:05.159Z,100616.91
2022-12-25T15:57:18.788Z,100619.69
2022-12-25T16:02:21.914Z,100624.75
2022-12-25T16:07:25.724Z,100626.44
2022-12-25T16:12:29.739Z,100618.81
2022-12-25T16:17:35.660Z,100593.31
2022-12-25T16:22:40.915Z,100593.13
2022-12-25T16:27:46.404Z,100590.16
2022-12-25T16:32:50.953Z,100604.44
2022-12-25T16:37:53.494Z,100629.41
2022-12-25T16:42:57.653Z,100621.38
2022-12-25T16:48:00.222Z,100613.19
2022-12-25T16:53:02.901Z,100603.56
2022-12-25T16:58:08.208Z,100610.56
2022-12-25T17:03:11.334Z,100612.25
2022-12-25T17:08:15.696Z,100610.88
2022-12-25T17:13:20.230Z,100589.59
2022-12-25T17:18:22.846Z,100621.38
2022-12-25T17:23:27.179Z,100525.19
2022-12-25T17:28:31.518Z,100617.16
2022-12-25T17:33:36.810Z,100610.78
2022-12-25T17:38:40.375Z,100608.00
2022-12-25T17:43:45.658Z,100599.56
2022-12-25T17:48:49.887Z,100616.69
2022-12-25T17:53:54.150Z,100609.69
2022-12-25T17:59:01.571Z,100610.56
2022-12-25T18:04:05.003Z,100616.69
2022-12-25T18:09:11.100Z,100629.59
2022-12-25T18:14:17.337Z,100631.31
2022-12-25T18:19:20.236Z,100628.06
2022-12-25T18:24:22.777Z,100612.25
2022-12-25T18:29:26.817Z,100609.69
2022-12-25T18:34:29.427Z,100615.22
2022-12-25T18:39:33.478Z,100595.09
2022-12-25T18:44:37.645Z,100608.75
2022-12-25T18:49:40.192Z,100621.25
2022-12-25T18:54:45.855Z,100631.63
2022-12-25T18:59:50.185Z,100637.88
2022-12-25T19:04:53.005Z,100638.84
2022-12-25T19:09:55.591Z,100629.44
2022-12-25T19:15:00.219Z,100626.69
2022-12-25T19:20:03.130Z,100633.69
2022-12-25T19:25:07.676Z,100629.66
2022-12-25T19:30:14.201Z,100596.91
2022-12-25T19:35:17.345Z,100563.50
2022-12-25T19:40:20.283Z,100651.03
2022-12-25T19:45:26.321Z,100657.50
2022-12-25T19:50:32.880Z,100638.75
2022-12-25T19:55:35.478Z,100629.56
2022-12-25T20:00:40.261Z,100617.88
2022-12-25T20:05:45.826Z,100622.25
2022-12-25T20:10:48.392Z,100640.47
2022-12-25T20:15:52.467Z,100648.19
2022-12-25T20:21:00.506Z,100651.47
2022-12-25T20:26:04.941Z,100659.09
2022-12-25T20:31:10.576Z,100644.47
2022-12-25T20:36:13.832Z,100633.34
2022-12-25T20:41:27.763Z,100643.41
2022-12-25T20:46:33.132Z,100613.03
2022-12-25T20:51:36.377Z,100637.13
2022-12-25T20:56:40.292Z,100637.78
2022-12-25T21:01:44.485Z,100648.72
2022-12-25T21:06:49.041Z,100638.31
2022-12-25T21:11:51.700Z,100632.81
2022-12-25T21:16:56.318Z,100631.84
2022-12-25T21:21:58.998Z,100645.41
2022-12-25T21:27:01.660Z,100655.28
2022-12-25T21:32:23.825Z,100670.22
2022-12-25T21:37:26.460Z,100698.16
2022-12-25T21:42:29.474Z,100707.00
2022-12-25T21:48:01.622Z,100684.97
2022-12-25T21:52:56.177Z,100701.56
2022-12-25T21:57:58.743Z,100688.56
2022-12-25T22:03:02.809Z,100696.19
2022-12-25T22:08:05.901Z,100684.09
2022-12-25T22:13:27.856Z,100694.28
2022-12-25T22:18:49.953Z,100701.91
2022-12-25T22:23:52.639Z,100705.41
2022-12-25T22:28:55.478Z,100707.38
2022-12-25T22:33:59.597Z,100709.94
2022-12-25T22:46:03.715Z,100697.44
2022-12-25T22:51:07.777Z,100720.06
2022-12-25T22:56:10.511Z,100716.66
2022-12-25T23:01:14.139Z,100725.75
2022-12-25T23:06:18.212Z,100743.84
2022-12-25T23:11:20.981Z,100737.38
2022-12-25T23:16:23.594Z,100739.66
2022-12-25T23:21:46.321Z,100732.28
2022-12-25T23:26:48.911Z,100698.38
2022-12-25T23:31:53.517Z,100725.31
2022-12-25T23:36:57.514Z,100677.88
2022-12-25T23:42:00.715Z,100714.53
2022-12-25T23:47:03.786Z,100721.72
2022-12-25T23:52:07.850Z,100723.44
2022-12-25T23:57:10.452Z,100723.72
